sensor_id;sensor_type;location;lat;lon;timestamp;pressure;altitude;pressure_sealevel;temperature;humidity
42591;BME280;28218;53.342;-6.216;2023-06-04T00:00:50;102494.56;;;15.08;100.00
42591;BME280;28218;53.342;-6.216;2023-06-04T00:03:18;102502.69;;;15.06;100.00
42591;BME280;28218;53.342;-6.216;2023-06-04T00:05:47;102504.34;;;15.07;100.00
42591;BME280;28218;53.342;-6.216;2023-06-04T00:08:15;102496.03;;;15.02;100.00
42591;BME280;28218;53.342;-6.216;2023-06-04T00:10:44;102500.50;;;15.02;100.00
42591;BME280;28218;53.342;-6.216;2023-06-04T00:13:12;102503.28;;;15.00;100.00
42591;BME280;28218;53.342;-6.216;2023-06-04T00:15:40;102499.13;;;14.98;100.00
42591;BME280;28218;53.342;-6.216;2023-06-04T00:18:10;102495.66;;;14.97;100.00
42591;BME280;28218;53.342;-6.216;2023-06-04T00:20:40;102500.25;;;14.95;100.00
42591;BME280;28218;53.342;-6.216;2023-06-04T00:23:08;102491.94;;;14.90;100.00
42591;BME280;28218;53.342;-6.216;2023-06-04T00:25:36;102496.25;;;14.91;100.00
42591;BME280;28218;53.342;-6.216;2023-06-04T00:28:06;102495.56;;;14.89;100.00
42591;BME280;28218;53.342;-6.216;2023-06-04T00:30:35;102497.84;;;14.84;100.00
42591;BME280;28218;53.342;-6.216;2023-06-04T00:33:03;102498.84;;;14.83;100.00
42591;BME280;28218;53.342;-6.216;2023-06-04T00:35:33;102495.50;;;14.81;100.00
42591;BME280;28218;53.342;-6.216;2023-06-04T00:38:01;102494.66;;;14.80;100.00
42591;BME280;28218;53.342;-6.216;2023-06-04T00:40:30;102492.19;;;14.79;100.00
42591;BME280;28218;53.342;-6.216;2023-06-04T00:42:58;102490.34;;;14.79;100.00
42591;BME280;28218;53.342;-6.216;2023-06-04T00:45:26;102486.03;;;14.78;100.00
42591;BME280;28218;53.342;-6.216;2023-06-04T00:47:58;102481.72;;;14.77;100.00
42591;BME280;28218;53.342;-6.216;2023-06-04T00:50:27;102490.66;;;14.76;100.00
42591;BME280;28218;53.342;-6.216;2023-06-04T00:52:56;102483.69;;;14.75;100.00
42591;BME280;28218;53.342;-6.216;2023-06-04T00:55:25;102484.84;;;14.73;100.00
42591;BME280;28218;53.342;-6.216;2023-06-04T00:57:53;102479.66;;;14.71;100.00
42591;BME280;28218;53.342;-6.216;2023-06-04T01:00:21;102483.97;;;14.72;100.00
42591;BME280;28218;53.342;-6.216;2023-06-04T01:02:52;102478.28;;;14.67;100.00
42591;BME280;28218;53.342;-6.216;2023-06-04T01:05:29;102480.13;;;14.67;100.00
42591;BME280;28218;53.342;-6.216;2023-06-04T01:08:04;102475.81;;;14.66;100.00
42591;BME280;28218;53.342;-6.216;2023-06-04T01:10:37;102473.44;;;14.63;100.00
42591;BME280;28218;53.342;-6.216;2023-06-04T01:13:06;102472.63;;;14.62;100.00
42591;BME280;28218;53.342;-6.216;2023-06-04T01:15:37;102479.06;;;14.60;100.00
42591;BME280;28218;53.342;-6.216;2023-06-04T01:18:05;102472.41;;;14.55;100.00
42591;BME280;28218;53.342;-6.216;2023-06-04T01:20:36;102483.00;;;14.55;100.00
42591;BME280;28218;53.342;-6.216;2023-06-04T01:23:15;102472.56;;;14.54;100.00
42591;BME280;28218;53.342;-6.216;2023-06-04T01:25:47;102478.31;;;14.49;100.00
42591;BME280;28218;53.342;-6.216;2023-06-04T01:28:17;102474.94;;;14.47;100.00
42591;BME280;28218;53.342;-6.216;2023-06-04T01:30:47;102478.56;;;14.46;100.00
42591;BME280;28218;53.342;-6.216;2023-06-04T01:33:18;102480.25;;;14.47;100.00
42591;BME280;28218;53.342;-6.216;2023-06-04T01:35:48;102479.41;;;14.47;100.00
42591;BME280;28218;53.342;-6.216;2023-06-04T01:38:18;102476.09;;;14.45;100.00
42591;BME280;28218;53.342;-6.216;2023-06-04T01:40:46;102473.88;;;14.40;100.00
42591;BME280;28218;53.342;-6.216;2023-06-04T01:43:14;102477.50;;;14.39;100.00
42591;BME280;28218;53.342;-6.216;2023-06-04T01:45:43;102477.50;;;14.39;100.00
42591;BME280;28218;53.342;-6.216;2023-06-04T01:48:11;102474.84;;;14.39;100.00
42591;BME280;28218;53.342;-6.216;2023-06-04T01:50:39;102469.41;;;14.41;100.00
42591;BME280;28218;53.342;-6.216;2023-06-04T01:53:07;102468.56;;;14.40;100.00
42591;BME280;28218;53.342;-6.216;2023-06-04T01:55:37;102471.22;;;14.40;100.00
42591;BME280;28218;53.342;-6.216;2023-06-04T01:58:06;102468.56;;;14.40;100.00
42591;BME280;28218;53.342;-6.216;2023-06-04T02:00:36;102461.59;;;14.39;100.00
42591;BME280;28218;53.342;-6.216;2023-06-04T02:03:04;102470.25;;;14.41;100.00
42591;BME280;28218;53.342;-6.216;2023-06-04T02:05:33;102470.41;;;14.40;100.00
42591;BME280;28218;53.342;-6.216;2023-06-04T02:08:01;102480.84;;;14.41;100.00
42591;BME280;28218;53.342;-6.216;2023-06-04T02:10:31;102477.50;;;14.39;100.00
42591;BME280;28218;53.342;-6.216;2023-06-04T02:13:02;102479.31;;;14.39;100.00
42591;BME280;28218;53.342;-6.216;2023-06-04T02:15:32;102475.28;;;14.35;100.00
42591;BME280;28218;53.342;-6.216;2023-06-04T02:18:12;102477.81;;;14.36;100.00
42591;BME280;28218;53.342;-6.216;2023-06-04T02:20:43;102476.81;;;14.37;100.00
42591;BME280;28218;53.342;-6.216;2023-06-04T02:23:13;102474.84;;;14.39;100.00
42591;BME280;28218;53.342;-6.216;2023-06-04T02:25:41;102482.13;;;14.37;100.00
42591;BME280;28218;53.342;-6.216;2023-06-04T02:28:13;102478.47;;;14.38;100.00
42591;BME280;28218;53.342;-6.216;2023-06-04T02:30:41;102480.31;;;14.38;100.00
42591;BME280;28218;53.342;-6.216;2023-06-04T02:33:09;102475.00;;;14.38;100.00
42591;BME280;28218;53.342;-6.216;2023-06-04T02:35:38;102470.00;;;14.35;100.00
42591;BME280;28218;53.342;-6.216;2023-06-04T02:38:06;102476.97;;;14.36;100.00
42591;BME280;28218;53.342;-6.216;2023-06-04T02:40:35;102474.34;;;14.36;100.00
42591;BME280;28218;53.342;-6.216;2023-06-04T02:43:03;102474.34;;;14.36;100.00
42591;BME280;28218;53.342;-6.216;2023-06-04T02:45:32;102476.16;;;14.35;100.00
42591;BME280;28218;53.342;-6.216;2023-06-04T02:48:01;102477.28;;;14.32;100.00
42591;BME280;28218;53.342;-6.216;2023-06-04T02:50:29;102472.97;;;14.31;100.00
42591;BME280;28218;53.342;-6.216;2023-06-04T02:52:58;102471.44;;;14.29;100.00
42591;BME280;28218;53.342;-6.216;2023-06-04T02:55:26;102481.66;;;14.24;100.00
42591;BME280;28218;53.342;-6.216;2023-06-04T02:57:54;102480.97;;;14.22;100.00
42591;BME280;28218;53.342;-6.216;2023-06-04T03:00:23;102478.47;;;14.20;100.00
42591;BME280;28218;53.342;-6.216;2023-06-04T03:02:53;102481.25;;;14.19;100.00
42591;BME280;28218;53.342;-6.216;2023-06-04T03:05:28;102470.94;;;14.16;100.00
42591;BME280;28218;53.342;-6.216;2023-06-04T03:08:01;102486.56;;;14.19;100.00
42591;BME280;28218;53.342;-6.216;2023-06-04T03:10:31;102473.59;;;14.16;100.00
42591;BME280;28218;53.342;-6.216;2023-06-04T03:12:59;102468.47;;;14.14;100.00
42591;BME280;28218;53.342;-6.216;2023-06-04T03:15:28;102467.47;;;14.15;100.00
42591;BME280;28218;53.342;-6.216;2023-06-04T03:17:57;102468.16;;;14.17;100.00
42591;BME280;28218;53.342;-6.216;2023-06-04T03:20:26;102476.25;;;14.16;100.00
42591;BME280;28218;53.342;-6.216;2023-06-04T03:22:54;102467.63;;;14.14;100.00
42591;BME280;28218;53.342;-6.216;2023-06-04T03:25:23;102462.31;;;14.14;100.00
42591;BME280;28218;53.342;-6.216;2023-06-04T03:27:51;102460.50;;;14.14;100.00
42591;BME280;28218;53.342;-6.216;2023-06-04T03:30:19;102452.41;;;14.16;100.00
42591;BME280;28218;53.342;-6.216;2023-06-04T03:32:47;102456.88;;;14.15;100.00
42591;BME280;28218;53.342;-6.216;2023-06-04T03:35:17;102458.69;;;14.15;100.00
42591;BME280;28218;53.342;-6.216;2023-06-04T03:37:45;102451.06;;;14.12;100.00
42591;BME280;28218;53.342;-6.216;2023-06-04T03:40:14;102460.28;;;14.07;100.00
42591;BME280;28218;53.342;-6.216;2023-06-04T03:42:42;102459.56;;;14.05;100.00
42591;BME280;28218;53.342;-6.216;2023-06-04T03:45:10;102462.38;;;14.04;100.00
42591;BME280;28218;53.342;-6.216;2023-06-04T03:47:38;102455.25;;;14.04;100.00
42591;BME280;28218;53.342;-6.216;2023-06-04T03:50:08;102457.09;;;14.04;100.00
42591;BME280;28218;53.342;-6.216;2023-06-04T03:52:37;102453.44;;;14.05;100.00
42591;BME280;28218;53.342;-6.216;2023-06-04T03:55:06;102457.91;;;14.04;100.00
42591;BME280;28218;53.342;-6.216;2023-06-04T03:57:35;102454.59;;;14.02;100.00
42591;BME280;28218;53.342;-6.216;2023-06-04T04:00:06;102453.88;;;14.00;100.00
42591;BME280;28218;53.342;-6.216;2023-06-04T04:02:35;102458.81;;;13.95;100.00
42591;BME280;28218;53.342;-6.216;2023-06-04T04:05:05;102454.78;;;13.91;100.00
42591;BME280;28218;53.342;-6.216;2023-06-04T04:07:33;102458.25;;;13.92;100.00
42591;BME280;28218;53.342;-6.216;2023-06-04T04:10:03;102462.59;;;13.93;100.00
42591;BME280;28218;53.342;-6.216;2023-06-04T04:12:33;102461.91;;;13.91;100.00
42591;BME280;28218;53.342;-6.216;2023-06-04T04:15:01;102455.91;;;13.89;100.00
42591;BME280;28218;53.342;-6.216;2023-06-04T04:17:29;102453.13;;;13.90;100.00
42591;BME280;28218;53.342;-6.216;2023-06-04T04:19:57;102454.09;;;13.89;100.00
42591;BME280;28218;53.342;-6.216;2023-06-04T04:22:26;102461.06;;;13.90;100.00
42591;BME280;28218;53.342;-6.216;2023-06-04T04:24:54;102454.66;;;13.93;100.00
42591;BME280;28218;53.342;-6.216;2023-06-04T04:27:24;102462.16;;;13.97;100.00
42591;BME280;28218;53.342;-6.216;2023-06-04T04:29:52;102460.19;;;13.99;100.00
42591;BME280;28218;53.342;-6.216;2023-06-04T04:32:21;102468.81;;;14.01;100.00
42591;BME280;28218;53.342;-6.216;2023-06-04T04:34:51;102468.50;;;14.04;100.00
42591;BME280;28218;53.342;-6.216;2023-06-04T04:37:20;102464.59;;;14.09;100.00
42591;BME280;28218;53.342;-6.216;2023-06-04T04:39:49;102466.97;;;14.12;100.00
42591;BME280;28218;53.342;-6.216;2023-06-04T04:42:19;102462.34;;;14.31;100.00
42591;BME280;28218;53.342;-6.216;2023-06-04T04:44:49;102460.88;;;14.65;100.00
42591;BME280;28218;53.342;-6.216;2023-06-04T04:47:17;102463.09;;;14.95;100.00
42591;BME280;28218;53.342;-6.216;2023-06-04T04:49:45;102470.63;;;15.26;100.00
42591;BME280;28218;53.342;-6.216;2023-06-04T04:52:16;102468.63;;;15.54;100.00
42591;BME280;28218;53.342;-6.216;2023-06-04T04:54:45;102466.94;;;15.79;100.00
42591;BME280;28218;53.342;-6.216;2023-06-04T04:57:13;102461.72;;;15.95;100.00
42591;BME280;28218;53.342;-6.216;2023-06-04T04:59:41;102465.06;;;16.14;100.00
42591;BME280;28218;53.342;-6.216;2023-06-04T05:02:11;102463.94;;;16.32;100.00
42591;BME280;28218;53.342;-6.216;2023-06-04T05:04:39;102460.13;;;16.35;100.00
42591;BME280;28218;53.342;-6.216;2023-06-04T05:07:08;102467.75;;;16.22;100.00
42591;BME280;28218;53.342;-6.216;2023-06-04T05:09:36;102463.09;;;16.16;100.00
42591;BME280;28218;53.342;-6.216;2023-06-04T05:12:04;102456.59;;;16.18;100.00
42591;BME280;28218;53.342;-6.216;2023-06-04T05:14:33;102461.44;;;16.15;100.00
42591;BME280;28218;53.342;-6.216;2023-06-04T05:17:03;102469.34;;;15.98;100.00
42591;BME280;28218;53.342;-6.216;2023-06-04T05:19:34;102468.81;;;15.87;100.00
42591;BME280;28218;53.342;-6.216;2023-06-04T05:22:04;102467.59;;;15.73;100.00
42591;BME280;28218;53.342;-6.216;2023-06-04T05:24:32;102472.47;;;15.59;100.00
42591;BME280;28218;53.342;-6.216;2023-06-04T05:27:00;102474.63;;;15.56;100.00
42591;BME280;28218;53.342;-6.216;2023-06-04T05:29:30;102472.28;;;15.53;100.00
42591;BME280;28218;53.342;-6.216;2023-06-04T05:31:58;102472.19;;;15.63;100.00
42591;BME280;28218;53.342;-6.216;2023-06-04T05:34:27;102484.28;;;15.99;100.00
42591;BME280;28218;53.342;-6.216;2023-06-04T05:36:57;102479.44;;;16.45;100.00
42591;BME280;28218;53.342;-6.216;2023-06-04T05:39:26;102474.00;;;16.88;100.00
42591;BME280;28218;53.342;-6.216;2023-06-04T05:41:54;102470.81;;;17.25;100.00
42591;BME280;28218;53.342;-6.216;2023-06-04T05:44:22;102478.72;;;17.57;100.00
42591;BME280;28218;53.342;-6.216;2023-06-04T05:46:50;102479.47;;;17.82;100.00
42591;BME280;28218;53.342;-6.216;2023-06-04T05:49:19;102478.63;;;17.90;100.00
42591;BME280;28218;53.342;-6.216;2023-06-04T05:51:51;102472.78;;;17.95;100.00
42591;BME280;28218;53.342;-6.216;2023-06-04T05:54:21;102475.97;;;18.21;100.00
42591;BME280;28218;53.342;-6.216;2023-06-04T05:56:49;102472.47;;;18.44;100.00
42591;BME280;28218;53.342;-6.216;2023-06-04T05:59:18;102467.44;;;18.72;100.00
42591;BME280;28218;53.342;-6.216;2023-06-04T06:01:46;102474.41;;;18.96;100.00
42591;BME280;28218;53.342;-6.216;2023-06-04T06:04:14;102474.66;;;19.24;100.00
42591;BME280;28218;53.342;-6.216;2023-06-04T06:06:43;102470.88;;;19.48;100.00
42591;BME280;28218;53.342;-6.216;2023-06-04T06:09:14;102474.97;;;19.73;100.00
42591;BME280;28218;53.342;-6.216;2023-06-04T06:11:44;102481.59;;;19.92;100.00
42591;BME280;28218;53.342;-6.216;2023-06-04T06:14:13;102486.53;;;20.10;100.00
42591;BME280;28218;53.342;-6.216;2023-06-04T06:16:41;102485.00;;;20.22;100.00
42591;BME280;28218;53.342;-6.216;2023-06-04T06:19:10;102490.88;;;20.32;100.00
42591;BME280;28218;53.342;-6.216;2023-06-04T06:21:39;102496.59;;;20.44;100.00
42591;BME280;28218;53.342;-6.216;2023-06-04T06:24:07;102501.84;;;20.52;100.00
42591;BME280;28218;53.342;-6.216;2023-06-04T06:26:35;102501.28;;;20.57;100.00
42591;BME280;28218;53.342;-6.216;2023-06-04T06:29:05;102509.38;;;20.63;100.00
42591;BME280;28218;53.342;-6.216;2023-06-04T06:31:33;102504.59;;;20.80;100.00
42591;BME280;28218;53.342;-6.216;2023-06-04T06:34:02;102512.53;;;20.95;100.00
42591;BME280;28218;53.342;-6.216;2023-06-04T06:36:30;102504.75;;;21.00;100.00
42591;BME280;28218;53.342;-6.216;2023-06-04T06:38:59;102505.03;;;21.12;100.00
42591;BME280;28218;53.342;-6.216;2023-06-04T06:41:28;102508.81;;;21.17;100.00
42591;BME280;28218;53.342;-6.216;2023-06-04T06:43:57;102513.16;;;21.18;100.00
42591;BME280;28218;53.342;-6.216;2023-06-04T06:46:27;102522.63;;;21.21;100.00
42591;BME280;28218;53.342;-6.216;2023-06-04T06:48:55;102524.47;;;21.21;100.00
42591;BME280;28218;53.342;-6.216;2023-06-04T06:51:23;102528.41;;;21.18;100.00
42591;BME280;28218;53.342;-6.216;2023-06-04T06:53:52;102528.16;;;21.13;100.00
42591;BME280;28218;53.342;-6.216;2023-06-04T06:56:20;102527.22;;;20.99;100.00
42591;BME280;28218;53.342;-6.216;2023-06-04T06:58:49;102525.69;;;20.90;100.00
42591;BME280;28218;53.342;-6.216;2023-06-04T07:01:17;102529.81;;;20.92;100.00
42591;BME280;28218;53.342;-6.216;2023-06-04T07:03:47;102528.50;;;20.82;100.00
42591;BME280;28218;53.342;-6.216;2023-06-04T07:06:16;102524.53;;;20.78;100.00
42591;BME280;28218;53.342;-6.216;2023-06-04T07:08:44;102538.06;;;20.91;100.00
42591;BME280;28218;53.342;-6.216;2023-06-04T07:11:15;102538.69;;;20.93;100.00
42591;BME280;28218;53.342;-6.216;2023-06-04T07:13:44;102544.81;;;20.87;100.00
42591;BME280;28218;53.342;-6.216;2023-06-04T07:16:12;102545.66;;;20.87;100.00
42591;BME280;28218;53.342;-6.216;2023-06-04T07:18:40;102538.75;;;20.78;100.00
42591;BME280;28218;53.342;-6.216;2023-06-04T07:21:10;102548.53;;;20.86;100.00
42591;BME280;28218;53.342;-6.216;2023-06-04T07:23:39;102539.47;;;20.87;100.00
42591;BME280;28218;53.342;-6.216;2023-06-04T07:26:07;102539.22;;;20.82;100.00
42591;BME280;28218;53.342;-6.216;2023-06-04T07:28:36;102538.19;;;20.61;100.00
42591;BME280;28218;53.342;-6.216;2023-06-04T07:31:04;102537.78;;;20.43;100.00
42591;BME280;28218;53.342;-6.216;2023-06-04T07:33:33;102540.66;;;20.27;100.00
42591;BME280;28218;53.342;-6.216;2023-06-04T07:36:12;102548.91;;;20.10;100.00
42591;BME280;28218;53.342;-6.216;2023-06-04T07:38:40;102537.56;;;19.94;100.00
42591;BME280;28218;53.342;-6.216;2023-06-04T07:41:09;102543.69;;;19.87;100.00
42591;BME280;28218;53.342;-6.216;2023-06-04T07:43:37;102545.97;;;19.76;100.00
42591;BME280;28218;53.342;-6.216;2023-06-04T07:46:06;102542.47;;;19.60;100.00
42591;BME280;28218;53.342;-6.216;2023-06-04T07:48:34;102549.91;;;19.50;100.00
42591;BME280;28218;53.342;-6.216;2023-06-04T07:51:03;102549.97;;;19.42;100.00
42591;BME280;28218;53.342;-6.216;2023-06-04T07:53:33;102551.34;;;19.38;100.00
42591;BME280;28218;53.342;-6.216;2023-06-04T07:56:02;102551.81;;;19.27;100.00
42591;BME280;28218;53.342;-6.216;2023-06-04T07:58:30;102554.63;;;19.10;100.00
42591;BME280;28218;53.342;-6.216;2023-06-04T08:00:59;102556.06;;;18.98;100.00
42591;BME280;28218;53.342;-6.216;2023-06-04T08:03:27;102558.28;;;18.86;100.00
42591;BME280;28218;53.342;-6.216;2023-06-04T08:05:55;102553.34;;;18.83;100.00
42591;BME280;28218;53.342;-6.216;2023-06-04T08:08:24;102547.50;;;18.80;100.00
42591;BME280;28218;53.342;-6.216;2023-06-04T08:10:53;102537.00;;;18.78;100.00
42591;BME280;28218;53.342;-6.216;2023-06-04T08:13:21;102549.25;;;18.73;100.00
42591;BME280;28218;53.342;-6.216;2023-06-04T08:15:50;102531.22;;;18.67;100.00
42591;BME280;28218;53.342;-6.216;2023-06-04T08:18:18;102532.56;;;18.62;100.00
42591;BME280;28218;53.342;-6.216;2023-06-04T08:20:47;102541.09;;;18.58;100.00
42591;BME280;28218;53.342;-6.216;2023-06-04T08:23:16;102534.81;;;18.51;100.00
42591;BME280;28218;53.342;-6.216;2023-06-04T08:25:44;102529.69;;;18.49;100.00
42591;BME280;28218;53.342;-6.216;2023-06-04T08:28:14;102541.34;;;18.48;100.00
42591;BME280;28218;53.342;-6.216;2023-06-04T08:30:43;102543.38;;;18.46;100.00
42591;BME280;28218;53.342;-6.216;2023-06-04T08:33:12;102541.72;;;18.45;100.00
42591;BME280;28218;53.342;-6.216;2023-06-04T08:35:40;102546.88;;;18.47;100.00
42591;BME280;28218;53.342;-6.216;2023-06-04T08:38:09;102549.72;;;18.45;100.00
42591;BME280;28218;53.342;-6.216;2023-06-04T08:40:37;102546.88;;;18.47;100.00
42591;BME280;28218;53.342;-6.216;2023-06-04T08:43:05;102552.72;;;18.42;100.00
42591;BME280;28218;53.342;-6.216;2023-06-04T08:45:39;102552.41;;;18.37;100.00
42591;BME280;28218;53.342;-6.216;2023-06-04T08:48:09;102549.75;;;18.37;100.00
42591;BME280;28218;53.342;-6.216;2023-06-04T08:50:39;102553.75;;;18.41;100.00
42591;BME280;28218;53.342;-6.216;2023-06-04T08:53:11;102556.72;;;18.46;100.00
42591;BME280;28218;53.342;-6.216;2023-06-04T08:55:42;102564.03;;;18.44;100.00
42591;BME280;28218;53.342;-6.216;2023-06-04T08:58:11;102563.69;;;18.47;100.00
42591;BME280;28218;53.342;-6.216;2023-06-04T09:00:41;102569.19;;;18.54;100.00
42591;BME280;28218;53.342;-6.216;2023-06-04T09:03:09;102570.13;;;18.61;100.00
42591;BME280;28218;53.342;-6.216;2023-06-04T09:05:39;102576.94;;;18.72;100.00
42591;BME280;28218;53.342;-6.216;2023-06-04T09:08:12;102575.22;;;18.79;100.00
42591;BME280;28218;53.342;-6.216;2023-06-04T09:10:44;102586.84;;;18.86;100.00
42591;BME280;28218;53.342;-6.216;2023-06-04T09:13:13;102584.31;;;18.93;100.00
42591;BME280;28218;53.342;-6.216;2023-06-04T09:15:44;102597.25;;;19.04;100.00
42591;BME280;28218;53.342;-6.216;2023-06-04T09:18:12;102603.19;;;19.14;100.00
42591;BME280;28218;53.342;-6.216;2023-06-04T09:20:41;102602.09;;;19.23;100.00
42591;BME280;28218;53.342;-6.216;2023-06-04T09:23:12;102595.38;;;19.27;100.00
42591;BME280;28218;53.342;-6.216;2023-06-04T09:25:42;102594.91;;;19.24;100.00
42591;BME280;28218;53.342;-6.216;2023-06-04T09:28:11;102593.91;;;19.25;100.00
42591;BME280;28218;53.342;-6.216;2023-06-04T09:30:52;102588.28;;;19.20;100.00
42591;BME280;28218;53.342;-6.216;2023-06-04T09:33:20;102597.28;;;19.19;100.00
42591;BME280;28218;53.342;-6.216;2023-06-04T09:35:53;102600.53;;;19.29;100.00
42591;BME280;28218;53.342;-6.216;2023-06-04T09:38:22;102596.50;;;19.33;100.00
42591;BME280;28218;53.342;-6.216;2023-06-04T09:40:50;102605.88;;;19.29;100.00
42591;BME280;28218;53.342;-6.216;2023-06-04T09:43:22;102597.66;;;19.38;100.00
42591;BME280;28218;53.342;-6.216;2023-06-04T09:45:52;102595.25;;;19.44;100.00
42591;BME280;28218;53.342;-6.216;2023-06-04T09:48:21;102604.66;;;19.39;100.00
42591;BME280;28218;53.342;-6.216;2023-06-04T09:50:49;102605.00;;;19.36;100.00
42591;BME280;28218;53.342;-6.216;2023-06-04T09:53:19;102611.94;;;19.46;100.00
42591;BME280;28218;53.342;-6.216;2023-06-04T09:55:56;102624.41;;;19.53;100.00
42591;BME280;28218;53.342;-6.216;2023-06-04T09:58:25;102617.84;;;19.56;100.00
42591;BME280;28218;53.342;-6.216;2023-06-04T10:00:56;102624.03;;;19.56;100.00
42591;BME280;28218;53.342;-6.216;2023-06-04T10:03:25;102621.31;;;19.64;100.00
42591;BME280;28218;53.342;-6.216;2023-06-04T10:05:58;102630.91;;;19.74;100.00
42591;BME280;28218;53.342;-6.216;2023-06-04T10:08:30;102628.25;;;19.88;100.00
42591;BME280;28218;53.342;-6.216;2023-06-04T10:11:00;102631.88;;;19.96;100.00
42591;BME280;28218;53.342;-6.216;2023-06-04T10:13:31;102632.16;;;20.01;100.00
42591;BME280;28218;53.342;-6.216;2023-06-04T10:16:06;102636.22;;;20.11;100.00
42591;BME280;28218;53.342;-6.216;2023-06-04T10:18:47;102634.91;;;20.22;100.00
42591;BME280;28218;53.342;-6.216;2023-06-04T10:21:17;102641.56;;;20.26;100.00
42591;BME280;28218;53.342;-6.216;2023-06-04T10:23:46;102639.91;;;20.25;100.00
42591;BME280;28218;53.342;-6.216;2023-06-04T10:26:15;102642.09;;;20.22;100.00
42591;BME280;28218;53.342;-6.216;2023-06-04T10:28:44;102648.56;;;20.27;100.00
42591;BME280;28218;53.342;-6.216;2023-06-04T10:31:15;102654.56;;;20.29;100.00
42591;BME280;28218;53.342;-6.216;2023-06-04T10:33:43;102654.75;;;20.28;100.00
42591;BME280;28218;53.342;-6.216;2023-06-04T10:36:19;102660.56;;;20.16;100.00
42591;BME280;28218;53.342;-6.216;2023-06-04T10:38:47;102660.28;;;20.11;100.00
42591;BME280;28218;53.342;-6.216;2023-06-04T10:41:18;102662.78;;;20.13;100.00
42591;BME280;28218;53.342;-6.216;2023-06-04T10:43:48;102659.28;;;20.12;100.00
42591;BME280;28218;53.342;-6.216;2023-06-04T10:46:19;102667.84;;;20.23;100.00
42591;BME280;28218;53.342;-6.216;2023-06-04T10:48:48;102654.94;;;20.26;100.00
42591;BME280;28218;53.342;-6.216;2023-06-04T10:51:28;102665.44;;;20.28;100.00
42591;BME280;28218;53.342;-6.216;2023-06-04T10:53:58;102665.56;;;20.34;100.00
42591;BME280;28218;53.342;-6.216;2023-06-04T10:56:27;102661.97;;;20.42;100.00
42591;BME280;28218;53.342;-6.216;2023-06-04T10:58:56;102662.69;;;20.51;100.00
42591;BME280;28218;53.342;-6.216;2023-06-04T11:01:26;102663.72;;;20.50;100.00
42591;BME280;28218;53.342;-6.216;2023-06-04T11:03:55;102666.28;;;20.43;100.00
42591;BME280;28218;53.342;-6.216;2023-06-04T11:06:24;102667.75;;;20.46;100.00
42591;BME280;28218;53.342;-6.216;2023-06-04T11:09:02;102669.81;;;20.58;100.00
42591;BME280;28218;53.342;-6.216;2023-06-04T11:11:30;102670.81;;;20.57;100.00
42591;BME280;28218;53.342;-6.216;2023-06-04T11:14:07;102678.03;;;20.57;100.00
42591;BME280;28218;53.342;-6.216;2023-06-04T11:16:37;102675.25;;;20.50;100.00
42591;BME280;28218;53.342;-6.216;2023-06-04T11:19:05;102669.59;;;20.60;100.00
42591;BME280;28218;53.342;-6.216;2023-06-04T11:21:34;102674.59;;;20.63;100.00
42591;BME280;28218;53.342;-6.216;2023-06-04T11:24:04;102670.00;;;20.57;100.00
42591;BME280;28218;53.342;-6.216;2023-06-04T11:26:33;102676.34;;;20.56;100.00
42591;BME280;28218;53.342;-6.216;2023-06-04T11:29:07;102679.59;;;20.51;100.00
42591;BME280;28218;53.342;-6.216;2023-06-04T11:31:43;102671.94;;;20.48;100.00
42591;BME280;28218;53.342;-6.216;2023-06-04T11:34:22;102670.97;;;20.41;100.00
42591;BME280;28218;53.342;-6.216;2023-06-04T11:36:50;102672.47;;;20.43;100.00
42591;BME280;28218;53.342;-6.216;2023-06-04T11:39:20;102679.22;;;20.39;100.00
42591;BME280;28218;53.342;-6.216;2023-06-04T11:41:48;102671.25;;;20.46;100.00
42591;BME280;28218;53.342;-6.216;2023-06-04T11:44:19;102669.53;;;20.53;100.00
42591;BME280;28218;53.342;-6.216;2023-06-04T11:46:49;102680.03;;;20.70;100.00
42591;BME280;28218;53.342;-6.216;2023-06-04T11:49:19;102682.34;;;20.73;100.00
42591;BME280;28218;53.342;-6.216;2023-06-04T11:51:49;102681.47;;;20.87;100.00
42591;BME280;28218;53.342;-6.216;2023-06-04T11:54:19;102673.44;;;20.87;100.00
42591;BME280;28218;53.342;-6.216;2023-06-04T11:56:49;102674.91;;;20.89;100.00
42591;BME280;28218;53.342;-6.216;2023-06-04T11:59:19;102670.69;;;20.80;100.00
42591;BME280;28218;53.342;-6.216;2023-06-04T12:01:49;102675.34;;;20.93;100.00
42591;BME280;28218;53.342;-6.216;2023-06-04T12:04:19;102671.00;;;20.92;100.00
42591;BME280;28218;53.342;-6.216;2023-06-04T12:06:51;102674.63;;;20.99;100.00
42591;BME280;28218;53.342;-6.216;2023-06-04T12:09:20;102666.56;;;20.99;100.00
42591;BME280;28218;53.342;-6.216;2023-06-04T12:11:49;102668.78;;;20.96;100.00
42591;BME280;28218;53.342;-6.216;2023-06-04T12:14:18;102664.50;;;21.01;100.00
42591;BME280;28218;53.342;-6.216;2023-06-04T12:16:56;102672.03;;;21.12;100.00
42591;BME280;28218;53.342;-6.216;2023-06-04T12:19:26;102674.22;;;21.02;100.00
42591;BME280;28218;53.342;-6.216;2023-06-04T12:22:01;102671.28;;;20.97;100.00
42591;BME280;28218;53.342;-6.216;2023-06-04T12:24:31;102669.41;;;20.98;100.00
42591;BME280;28218;53.342;-6.216;2023-06-04T12:27:02;102670.78;;;21.08;100.00
42591;BME280;28218;53.342;-6.216;2023-06-04T12:29:31;102671.03;;;21.13;100.00
42591;BME280;28218;53.342;-6.216;2023-06-04T12:32:05;102666.31;;;21.15;100.00
42591;BME280;28218;53.342;-6.216;2023-06-04T12:34:38;102669.00;;;21.15;100.00
42591;BME280;28218;53.342;-6.216;2023-06-04T12:37:07;102672.34;;;21.17;100.00
42591;BME280;28218;53.342;-6.216;2023-06-04T12:39:36;102671.56;;;21.24;100.00
42591;BME280;28218;53.342;-6.216;2023-06-04T12:42:06;102670.16;;;21.28;100.00